Time;durP1;ratioP1;P1;durP2;ratioP2;P2;SDS_P1;SDS_P2;PMS_P1;PMS_P2;Temp;Humidity;BMP_temperature;BMP_pressure;BME280_temperature;BME280_humidity;BME280_pressure;Samples;Min_cycle;Max_cycle;Signal;HPM_P1;HPM_P2
2021/10/05 00:00:51;;;;;;;4.38;3.05;;;;;;;14.29;77.09;99693.97;1087934;54;20042;-80
2021/10/05 00:01:55;;;;;;;4.97;3.33;;;;;;;14.31;77.02;99696.47;1088047;54;20014;-81
2021/10/05 00:03:05;;;;;;;4.57;3.33;;;;;;;14.28;76.89;99691.44;1087933;54;21308;-80
2021/10/05 00:04:06;;;;;;;5.50;3.90;;;;;;;14.25;76.94;99691.81;1088571;47;20070;-83
2021/10/05 00:05:11;;;;;;;4.93;3.65;;;;;;;14.25;77.00;99694.50;1087984;54;20026;-81
2021/10/05 00:06:13;;;;;;;6.75;3.80;;;;;;;14.23;76.96;99691.97;1088006;54;20061;-81
2021/10/05 00:07:17;;;;;;;6.00;3.63;;;;;;;14.24;77.13;99682.91;1087955;54;20019;-82
2021/10/05 00:08:19;;;;;;;4.82;3.63;;;;;;;14.26;77.04;99682.75;1088033;54;20760;-83
2021/10/05 00:09:30;;;;;;;4.75;3.03;;;;;;;14.24;77.15;99682.09;1088248;54;20025;-81
2021/10/05 00:10:32;;;;;;;4.60;3.40;;;;;;;14.26;77.09;99677.38;1088268;54;20042;-83
2021/10/05 00:11:44;;;;;;;4.35;3.17;;;;;;;14.23;76.95;99678.53;1088275;54;20030;-82
2021/10/05 00:12:45;;;;;;;4.45;3.03;;;;;;;14.26;77.06;99675.50;1088251;54;20064;-82
2021/10/05 00:13:55;;;;;;;5.95;3.28;;;;;;;14.23;76.94;99683.91;1088303;54;20027;-81
2021/10/05 00:15:03;;;;;;;4.70;3.50;;;;;;;14.22;77.22;99678.72;1088297;54;20662;-81
2021/10/05 00:16:05;;;;;;;4.88;3.47;;;;;;;14.23;77.05;99672.34;1088233;54;20041;-82
2021/10/05 00:17:17;;;;;;;7.45;4.07;;;;;;;14.15;77.43;99671.38;1088253;54;20046;-81
2021/10/05 00:18:21;;;;;;;5.47;3.63;;;;;;;14.19;77.12;99670.00;1088297;54;20029;-82
2021/10/05 00:19:27;;;;;;;5.28;4.25;;;;;;;14.15;77.49;99676.75;1088324;54;20026;-82
2021/10/05 00:20:29;;;;;;;5.80;4.20;;;;;;;14.13;77.22;99676.09;1088232;54;20732;-82
2021/10/05 00:21:33;;;;;;;6.10;5.13;;;;;;;14.10;77.40;99673.75;1088368;54;20018;-82
2021/10/05 00:22:35;;;;;;;5.72;4.97;;;;;;;14.09;77.04;99669.38;1090721;39;20601;-80
2021/10/05 00:23:49;;;;;;;6.88;4.50;;;;;;;14.08;77.30;99669.56;1088051;54;20026;-82
2021/10/05 00:24:54;;;;;;;5.47;3.92;;;;;;;14.10;77.49;99667.56;1088321;54;20019;-83
2021/10/05 00:25:56;;;;;;;4.82;3.83;;;;;;;14.09;77.40;99672.06;1088223;54;20019;-82
2021/10/05 00:27:00;;;;;;;5.80;4.18;;;;;;;14.11;77.33;99670.03;1088104;54;20034;-81
2021/10/05 00:28:06;;;;;;;6.45;4.13;;;;;;;14.16;76.99;99672.22;1091077;47;20039;-82
2021/10/05 00:29:08;;;;;;;6.03;3.63;;;;;;;14.13;77.31;99676.09;1088113;54;20031;-83
2021/10/05 00:30:12;;;;;;;4.70;3.75;;;;;;;14.15;77.34;99673.22;1097926;39;20593;-81
2021/10/05 00:31:14;;;;;;;5.15;3.83;;;;;;;14.15;76.94;99683.97;1087965;54;20034;-82
2021/10/05 00:32:18;;;;;;;5.47;3.97;;;;;;;14.19;76.94;99678.06;1087784;54;20066;-81
2021/10/05 00:33:22;;;;;;;4.95;3.65;;;;;;;14.22;77.01;99676.03;1087793;54;20035;-81
2021/10/05 00:34:27;;;;;;;7.05;4.93;;;;;;;14.16;76.79;99680.28;1087815;54;20034;-80
2021/10/05 00:35:28;;;;;;;6.40;5.25;;;;;;;14.15;76.75;99679.44;1087775;54;20038;-81
2021/10/05 00:36:33;;;;;;;5.30;4.25;;;;;;;14.15;76.75;99682.13;1087813;54;20030;-81
2021/10/05 00:37:34;;;;;;;5.68;4.63;;;;;;;14.12;76.75;99679.78;1087798;54;20026;-79
2021/10/05 00:38:39;;;;;;;5.88;4.60;;;;;;;14.14;76.64;99675.09;1087862;54;20035;-80
2021/10/05 00:39:40;;;;;;;5.13;4.03;;;;;;;14.16;76.73;99678.44;1087791;54;20019;-80
2021/10/05 00:40:44;;;;;;;5.53;3.70;;;;;;;14.17;76.47;99676.56;1088487;47;20031;-82
2021/10/05 00:41:49;;;;;;;5.72;4.15;;;;;;;14.16;76.61;99674.91;1087658;54;20057;-80
2021/10/05 00:42:50;;;;;;;7.65;3.90;;;;;;;14.16;76.71;99670.38;1087782;54;20054;-79
2021/10/05 00:43:54;;;;;;;5.38;3.75;;;;;;;14.15;76.89;99665.16;1087782;54;20042;-81
2021/10/05 00:44:56;;;;;;;6.57;4.43;;;;;;;14.14;77.04;99660.78;1089193;39;20693;-81
2021/10/05 00:46:00;;;;;;;5.32;4.20;;;;;;;14.12;76.67;99655.59;1087723;54;20027;-80
2021/10/05 00:47:03;;;;;;;6.25;4.35;;;;;;;14.10;76.99;99649.56;1087719;54;20030;-80
2021/10/05 00:48:08;;;;;;;5.78;4.30;;;;;;;14.12;76.87;99652.91;1087689;54;20035;-81
2021/10/05 00:49:12;;;;;;;6.80;4.70;;;;;;;14.10;77.19;99646.03;1088957;47;20034;-78
2021/10/05 00:50:17;;;;;;;4.88;3.70;;;;;;;14.16;76.93;99643.50;1090114;31;20749;-80
2021/10/05 00:51:18;;;;;;;5.00;3.80;;;;;;;14.15;77.01;99636.44;1087697;54;20031;-80
2021/10/05 00:52:23;;;;;;;5.25;3.88;;;;;;;14.17;76.95;99638.94;1087754;54;20037;-80
2021/10/05 00:53:24;;;;;;;5.22;4.45;;;;;;;14.13;77.12;99627.72;1088322;39;20586;-80
2021/10/05 00:54:29;;;;;;;5.30;3.83;;;;;;;14.13;77.14;99632.22;1088407;39;20922;-80
2021/10/05 00:55:30;;;;;;;5.32;4.18;;;;;;;14.12;77.19;99630.59;1087442;54;20035;-79
2021/10/05 00:56:35;;;;;;;5.78;4.60;;;;;;;14.11;77.08;99634.28;1087918;54;20031;-79
2021/10/05 00:57:36;;;;;;;5.68;4.38;;;;;;;14.10;77.20;99633.44;1087825;54;20030;-80
2021/10/05 00:58:41;;;;;;;4.97;4.13;;;;;;;14.09;77.24;99631.75;1087853;54;20030;-79
2021/10/05 00:59:42;;;;;;;5.25;3.85;;;;;;;14.08;77.33;99629.25;1087962;54;20041;-79
2021/10/05 01:00:46;;;;;;;10.13;4.35;;;;;;;14.05;77.20;99630.44;1087983;54;20038;-81
2021/10/05 01:01:48;;;;;;;4.97;4.20;;;;;;;14.06;77.66;99625.91;1088014;54;20038;-80
2021/10/05 01:02:52;;;;;;;5.05;4.13;;;;;;;14.08;77.71;99627.38;1087885;54;20031;-81
2021/10/05 01:03:54;;;;;;;6.50;4.25;;;;;;;14.08;77.46;99619.31;1088054;54;20037;-80
2021/10/05 01:05:01;;;;;;;4.90;3.63;;;;;;;14.10;77.42;99621.84;1088052;54;20041;-80
2021/10/05 01:06:02;;;;;;;5.43;3.72;;;;;;;14.09;77.44;99623.69;1088081;54;20038;-80
2021/10/05 01:07:08;;;;;;;4.55;2.85;;;;;;;14.11;77.81;99616.28;1088075;54;20035;-81
2021/10/05 01:08:10;;;;;;;4.55;3.22;;;;;;;14.09;77.80;99614.81;1089004;39;20630;-81
2021/10/05 01:09:15;;;;;;;4.38;3.38;;;;;;;14.09;77.77;99610.25;1087959;54;20034;-81
2021/10/05 01:10:17;;;;;;;4.13;2.83;;;;;;;14.09;77.69;99607.56;1088028;54;20034;-81
2021/10/05 01:11:23;;;;;;;4.55;3.17;;;;;;;14.11;77.80;99604.72;1088183;54;20030;-79
2021/10/05 01:12:25;;;;;;;4.85;3.42;;;;;;;14.12;77.93;99599.16;1088005;54;20048;-81
2021/10/05 01:13:29;;;;;;;4.65;3.50;;;;;;;14.11;78.18;99602.03;1087965;54;20035;-80
2021/10/05 01:14:31;;;;;;;5.03;3.83;;;;;;;14.12;78.09;99599.16;1088026;54;20034;-80
2021/10/05 01:15:37;;;;;;;5.18;3.47;;;;;;;14.08;77.97;99603.19;1088141;54;20107;-81
2021/10/05 01:16:39;;;;;;;4.60;3.60;;;;;;;14.02;78.51;99602.09;1088149;54;20061;-80
2021/10/05 01:17:44;;;;;;;5.45;3.88;;;;;;;13.99;78.57;99598.91;1088142;54;20038;-81
2021/10/05 01:18:49;;;;;;;4.85;3.58;;;;;;;14.00;78.63;99603.25;1088186;54;20035;-81
2021/10/05 01:19:50;;;;;;;5.07;4.10;;;;;;;13.95;78.66;99592.22;1088147;54;20042;-80
2021/10/05 01:21:00;;;;;;;5.05;3.60;;;;;;;13.96;78.86;99593.91;1088121;54;20030;-81
2021/10/05 01:22:02;;;;;;;5.13;3.72;;;;;;;13.95;79.11;99586.84;1088249;54;20030;-81
2021/10/05 01:23:06;;;;;;;5.68;3.85;;;;;;;13.93;78.90;99578.13;1088197;54;20030;-80
2021/10/05 01:24:10;;;;;;;5.53;3.97;;;;;;;13.90;79.16;99579.31;1088177;54;20022;-80
2021/10/05 01:25:17;;;;;;;5.25;4.35;;;;;;;13.89;79.57;99578.47;1088203;54;20038;-79
2021/10/05 01:26:19;;;;;;;5.68;3.88;;;;;;;13.86;79.27;99575.31;1088183;54;20031;-81
2021/10/05 01:27:23;;;;;;;6.35;4.10;;;;;;;13.87;79.45;99572.47;1088109;54;20081;-82
2021/10/05 01:28:26;;;;;;;4.88;4.00;;;;;;;13.88;79.35;99571.44;1088132;54;20022;-81
2021/10/05 01:29:32;;;;;;;6.50;4.20;;;;;;;13.86;79.43;99568.09;1088251;54;20042;-79
2021/10/05 01:30:36;;;;;;;5.07;3.72;;;;;;;13.91;79.50;99570.25;1088150;54;20022;-80
2021/10/05 01:31:40;;;;;;;5.28;4.20;;;;;;;13.87;79.85;99566.22;1088259;54;20038;-81
2021/10/05 01:32:45;;;;;;;5.85;3.90;;;;;;;13.86;79.71;99561.88;1088281;54;20041;-81
2021/10/05 01:33:46;;;;;;;4.78;3.45;;;;;;;13.87;79.58;99566.22;1088233;54;20034;-83
2021/10/05 01:34:51;;;;;;;4.85;4.00;;;;;;;13.88;79.29;99565.22;1088287;54;20034;-81
2021/10/05 01:35:58;;;;;;;5.88;4.82;;;;;;;13.80;79.55;99563.41;1088118;54;20765;-81
2021/10/05 01:37:00;;;;;;;6.63;5.18;;;;;;;13.76;79.67;99559.44;1088097;54;20042;-82
2021/10/05 01:38:05;;;;;;;6.35;5.10;;;;;;;13.72;79.42;99553.56;1088010;54;20037;-81
2021/10/05 01:39:19;;;;;;;5.60;4.75;;;;;;;13.75;79.60;99547.00;1088012;54;20014;-82
2021/10/05 01:40:23;;;;;;;6.28;5.35;;;;;;;13.65;79.94;99549.91;1088391;54;20018;-80
2021/10/05 01:41:25;;;;;;;6.30;5.53;;;;;;;13.61;79.85;99547.75;1088444;54;20041;-82
2021/10/05 01:42:29;;;;;;;7.20;4.97;;;;;;;13.62;79.51;99547.59;1088238;54;20019;-81
2021/10/05 01:43:31;;;;;;;7.95;6.13;;;;;;;13.58;79.91;99551.63;1088142;54;20027;-81
2021/10/05 01:44:36;;;;;;;7.15;6.03;;;;;;;13.58;79.92;99554.31;1088406;54;20019;-80
2021/10/05 01:45:40;;;;;;;8.82;5.75;;;;;;;13.60;79.55;99552.28;1088311;54;20038;-80
2021/10/05 01:46:43;;;;;;;6.72;5.95;;;;;;;13.54;79.75;99545.78;1091211;46;20038;-80
2021/10/05 01:47:47;;;;;;;7.30;5.88;;;;;;;13.50;80.08;99557.06;1088486;54;20030;-81
2021/10/05 01:48:50;;;;;;;8.05;5.15;;;;;;;13.51;79.83;99554.19;1088433;54;20023;-79
2021/10/05 01:49:54;;;;;;;6.85;5.70;;;;;;;13.50;79.84;99541.78;1088526;54;20026;-81
2021/10/05 01:51:02;;;;;;;6.70;5.47;;;;;;;13.49;79.99;99548.16;1088521;54;20030;-79
2021/10/05 01:52:06;;;;;;;6.15;5.32;;;;;;;13.49;79.95;99556.22;1088505;54;20019;-81
2021/10/05 01:53:10;;;;;;;6.25;5.45;;;;;;;13.46;80.31;99551.19;1088463;54;20663;-81
2021/10/05 01:54:12;;;;;;;7.13;5.78;;;;;;;13.47;80.05;99542.13;1088320;54;20033;-80
2021/10/05 01:55:16;;;;;;;7.05;5.97;;;;;;;13.46;80.19;99542.31;1088005;54;20030;-81
2021/10/05 01:56:18;;;;;;;7.10;6.22;;;;;;;13.47;80.35;99542.13;1087578;54;22442;-80
2021/10/05 01:57:22;;;;;;;6.88;5.80;;;;;;;13.48;80.20;99537.59;1087339;54;20035;-80
2021/10/05 01:58:24;;;;;;;6.88;5.35;;;;;;;13.47;80.36;99539.44;1088019;54;20049;-80
2021/10/05 01:59:28;;;;;;;6.50;5.13;;;;;;;13.50;80.28;99547.16;1087973;54;20098;-80
2021/10/05 02:00:33;;;;;;;6.05;4.95;;;;;;;13.51;80.00;99543.44;1087831;54;20030;-80
2021/10/05 02:01:35;;;;;;;5.65;4.70;;;;;;;13.53;80.33;99549.47;1088098;54;20058;-80
2021/10/05 02:02:39;;;;;;;6.50;4.57;;;;;;;13.56;79.97;99546.44;1088005;54;20058;-80
2021/10/05 02:03:42;;;;;;;6.22;4.97;;;;;;;13.60;79.90;99546.94;1089566;46;20030;-80
2021/10/05 02:04:46;;;;;;;5.63;4.18;;;;;;;13.62;79.71;99536.00;1087885;54;20037;-81
2021/10/05 02:05:50;;;;;;;6.50;4.65;;;;;;;13.65;79.69;99546.41;1088100;54;20027;-79
2021/10/05 02:06:57;;;;;;;5.65;4.13;;;;;;;13.68;79.65;99538.00;1088238;54;20019;-80
2021/10/05 02:08:01;;;;;;;5.55;4.65;;;;;;;13.67;80.01;99537.13;1088282;54;20050;-79
2021/10/05 02:09:03;;;;;;;6.72;5.25;;;;;;;13.65;79.94;99536.47;1088345;54;20045;-81
2021/10/05 02:10:08;;;;;;;6.07;4.82;;;;;;;13.66;80.01;99535.47;1088347;54;20098;-80
2021/10/05 02:11:10;;;;;;;5.93;4.57;;;;;;;13.66;79.79;99529.28;1088383;54;20041;-79
2021/10/05 02:12:15;;;;;;;5.28;4.50;;;;;;;13.70;79.98;99539.47;1088255;54;20026;-77
2021/10/05 02:13:17;;;;;;;4.95;3.95;;;;;;;13.73;79.81;99535.59;1090038;46;20854;-80
2021/10/05 02:14:26;;;;;;;5.20;4.20;;;;;;;13.74;79.80;99537.28;1088307;54;20690;-81
2021/10/05 02:15:27;;;;;;;5.80;4.55;;;;;;;13.76;79.78;99540.63;1088426;54;20034;-81
2021/10/05 02:16:33;;;;;;;5.90;4.60;;;;;;;13.81;79.72;99532.84;1087972;54;20042;-81
2021/10/05 02:17:37;;;;;;;5.70;4.57;;;;;;;13.81;79.58;99527.47;1088301;54;20038;-79
2021/10/05 02:18:39;;;;;;;6.70;4.93;;;;;;;13.84;79.46;99531.66;1089867;46;20034;-80
2021/10/05 02:19:43;;;;;;;5.20;4.03;;;;;;;13.85;79.64;99526.13;1088530;46;20031;-81
2021/10/05 02:20:45;;;;;;;5.90;4.63;;;;;;;13.84;79.67;99527.13;1093438;39;20241;-81
2021/10/05 02:21:49;;;;;;;6.50;4.40;;;;;;;13.82;79.69;99521.09;1089281;46;20026;-81
2021/10/05 02:22:55;;;;;;;6.53;4.53;;;;;;;13.81;79.83;99527.47;1088402;54;20034;-81
2021/10/05 02:25:17;;;;;;;6.45;5.07;;;;;;;13.67;80.48;99530.94;1088365;54;20034;-80
2021/10/05 02:26:20;;;;;;;5.88;4.72;;;;;;;13.69;79.99;99536.97;1088392;54;20053;-80
2021/10/05 02:27:25;;;;;;;5.63;4.30;;;;;;;13.73;80.31;99530.22;1088118;54;20031;-81
2021/10/05 02:28:34;;;;;;;6.75;3.70;;;;;;;13.75;79.91;99538.94;1088053;54;20042;-79
2021/10/05 02:29:38;;;;;;;6.55;4.47;;;;;;;13.76;80.11;99537.94;1087999;54;20081;-80
2021/10/05 02:30:44;;;;;;;5.00;4.03;;;;;;;13.79;79.88;99545.63;1088106;54;20069;-79
2021/10/05 02:31:45;;;;;;;5.30;3.85;;;;;;;13.83;79.92;99540.75;1088126;54;20034;-82
2021/10/05 02:32:49;;;;;;;5.47;3.90;;;;;;;13.80;79.98;99544.59;1087938;54;20034;-80
2021/10/05 02:33:51;;;;;;;5.72;4.20;;;;;;;13.81;80.34;99545.47;1088138;54;20037;-79
2021/10/05 02:34:56;;;;;;;5.68;3.90;;;;;;;13.78;80.44;99546.66;1088151;54;20031;-80
2021/10/05 02:35:57;;;;;;;5.55;4.03;;;;;;;13.81;80.30;99542.78;1088061;54;20030;-79
2021/10/05 02:37:03;;;;;;;5.30;3.97;;;;;;;13.80;80.48;99541.09;1088081;54;20053;-81
2021/10/05 02:38:10;;;;;;;5.50;4.30;;;;;;;13.80;80.61;99541.09;1088570;46;20034;-82
2021/10/05 02:39:11;;;;;;;4.32;3.05;;;;;;;13.84;80.22;99540.56;1088018;54;20725;-80
2021/10/05 02:40:15;;;;;;;5.22;3.72;;;;;;;13.86;80.08;99533.16;1088011;54;20034;-80
2021/10/05 02:41:17;;;;;;;6.22;3.78;;;;;;;13.82;80.48;99533.72;1087946;54;20038;-80
2021/10/05 02:42:21;;;;;;;5.28;3.92;;;;;;;13.82;80.16;99533.72;1087961;54;20034;-79
2021/10/05 02:43:23;;;;;;;5.32;3.58;;;;;;;13.85;80.08;99536.88;1091288;39;20681;-80
2021/10/05 02:44:28;;;;;;;5.82;4.03;;;;;;;13.85;80.21;99531.50;1088002;54;20034;-81
2021/10/05 02:45:32;;;;;;;5.95;3.83;;;;;;;13.86;80.00;99526.94;1087922;54;20034;-80
2021/10/05 02:46:34;;;;;;;5.22;3.65;;;;;;;13.86;80.32;99530.47;1087762;54;20039;-80
2021/10/05 02:47:38;;;;;;;4.78;3.50;;;;;;;13.88;80.08;99520.41;1087905;54;20030;-80
2021/10/05 02:48:39;;;;;;;4.97;3.28;;;;;;;13.87;80.13;99524.09;1087867;54;20039;-80
2021/10/05 02:49:46;;;;;;;4.45;3.35;;;;;;;13.86;80.29;99524.25;1088031;54;20717;-81
2021/10/05 02:50:47;;;;;;;5.60;3.78;;;;;;;13.79;80.21;99518.75;1093471;39;20275;-81
2021/10/05 02:51:52;;;;;;;5.30;3.65;;;;;;;13.80;80.49;99515.06;1087978;54;20030;-79
2021/10/05 02:52:53;;;;;;;5.40;3.40;;;;;;;13.81;80.68;99513.22;1087729;54;20789;-80
2021/10/05 02:54:00;;;;;;;4.88;3.80;;;;;;;13.80;80.42;99514.25;1087893;54;20035;-80
2021/10/05 02:55:02;;;;;;;5.63;4.20;;;;;;;13.72;80.84;99517.81;1087842;54;20031;-81
2021/10/05 02:56:07;;;;;;;6.40;4.30;;;;;;;13.70;80.61;99512.63;1087801;54;20053;-81
2021/10/05 02:57:08;;;;;;;6.47;4.70;;;;;;;13.62;80.97;99510.00;1087921;54;20015;-80
2021/10/05 02:58:12;;;;;;;6.15;4.95;;;;;;;13.55;81.36;99515.22;1087083;54;20027;-80
2021/10/05 02:59:15;;;;;;;6.90;4.90;;;;;;;13.52;81.28;99512.88;1087931;54;20034;-80
2021/10/05 03:00:20;;;;;;;6.82;5.05;;;;;;;13.49;81.29;99513.25;1087759;54;20030;-81
2021/10/05 03:01:21;;;;;;;8.18;5.03;;;;;;;13.40;81.76;99508.97;1087882;54;20041;-81
2021/10/05 03:02:25;;;;;;;5.90;4.50;;;;;;;13.43;81.58;99513.94;1087958;54;20078;-80
2021/10/05 03:03:27;;;;;;;6.22;5.10;;;;;;;13.40;81.44;99506.28;1087918;54;20034;-80
2021/10/05 03:04:33;;;;;;;5.68;4.93;;;;;;;13.31;81.67;99502.75;1088132;54;20018;-80
2021/10/05 03:05:35;;;;;;;5.80;4.35;;;;;;;13.32;81.75;99499.06;1088083;54;20026;-81
2021/10/05 03:06:39;;;;;;;5.78;4.30;;;;;;;13.35;81.73;99505.91;1087805;54;20031;-81
2021/10/05 03:07:40;;;;;;;7.63;5.00;;;;;;;13.35;81.70;99497.84;1087764;54;20034;-80
2021/10/05 03:08:45;;;;;;;5.93;4.00;;;;;;;13.36;81.69;99492.34;1087832;54;20041;-79
2021/10/05 03:09:51;;;;;;;5.97;4.70;;;;;;;13.32;81.71;99495.56;1087785;54;20041;-80
2021/10/05 03:10:53;;;;;;;5.93;4.18;;;;;;;13.33;81.55;99489.13;1087795;54;20045;-81
2021/10/05 03:11:57;;;;;;;6.22;4.63;;;;;;;13.30;81.67;99494.88;1087844;54;20042;-81
2021/10/05 03:12:59;;;;;;;5.53;4.00;;;;;;;13.30;81.65;99486.84;1087871;54;20062;-80
2021/10/05 03:14:03;;;;;;;7.18;4.22;;;;;;;13.31;81.80;99485.81;1094338;39;21063;-80
2021/10/05 03:15:05;;;;;;;6.13;3.78;;;;;;;13.28;81.79;99489.66;1090829;39;20697;-80
2021/10/05 03:16:10;;;;;;;6.60;4.80;;;;;;;13.25;81.58;99490.03;1087339;54;20030;-81
2021/10/05 03:17:14;;;;;;;5.97;4.47;;;;;;;13.21;81.54;99486.03;1087845;54;20041;-80
2021/10/05 03:18:15;;;;;;;4.97;3.97;;;;;;;13.20;81.59;99482.53;1087796;54;20034;-81
2021/10/05 03:19:20;;;;;;;6.05;4.20;;;;;;;13.22;81.58;99480.50;1087825;54;20030;-81
2021/10/05 03:20:25;;;;;;;7.05;4.45;;;;;;;13.20;81.61;99482.53;1087802;54;20037;-81
2021/10/05 03:21:29;;;;;;;5.38;4.05;;;;;;;13.21;81.64;99484.19;1087729;54;20035;-80
2021/10/05 03:22:31;;;;;;;5.00;3.70;;;;;;;13.18;81.84;99476.47;1092556;39;20653;-80
2021/10/05 03:23:35;;;;;;;5.13;3.80;;;;;;;13.17;82.13;99480.19;1087821;54;20041;-80
2021/10/05 03:24:40;;;;;;;5.47;3.90;;;;;;;13.19;82.06;99480.00;1088520;39;20721;-80
2021/10/05 03:25:44;;;;;;;5.65;4.28;;;;;;;13.17;82.03;99482.03;1087811;54;20041;-80
2021/10/05 03:26:48;;;;;;;6.25;4.47;;;;;;;13.18;82.13;99481.00;1088255;39;20642;-81
2021/10/05 03:27:50;;;;;;;5.07;3.80;;;;;;;13.18;81.97;99481.00;1087778;54;20052;-80
2021/10/05 03:28:54;;;;;;;5.35;3.75;;;;;;;13.21;81.97;99480.66;1087980;46;20042;-79
2021/10/05 03:29:56;;;;;;;5.65;3.90;;;;;;;13.22;82.08;99480.50;1087870;54;20758;-80
2021/10/05 03:31:00;;;;;;;5.45;3.63;;;;;;;13.24;82.07;99478.44;1087847;54;20034;-79
2021/10/05 03:32:05;;;;;;;5.47;3.80;;;;;;;13.27;81.80;99474.59;1087870;54;20058;-81
2021/10/05 03:33:06;;;;;;;8.45;3.60;;;;;;;13.27;82.09;99472.75;1087702;54;20030;-80
2021/10/05 03:34:10;;;;;;;5.70;3.95;;;;;;;13.28;82.18;99478.94;1087877;54;20042;-80
2021/10/05 03:35:12;;;;;;;4.95;3.65;;;;;;;13.31;81.97;99477.78;1087834;54;20018;-81
2021/10/05 03:36:17;;;;;;;4.90;3.28;;;;;;;13.33;81.96;99479.25;1087769;54;21280;-79
2021/10/05 03:37:19;;;;;;;5.65;3.13;;;;;;;13.35;81.94;99482.59;1087806;54;20037;-79
2021/10/05 03:38:23;;;;;;;4.57;3.33;;;;;;;13.37;81.89;99480.56;1087791;54;20035;-81
2021/10/05 03:39:28;;;;;;;5.85;3.50;;;;;;;13.40;81.52;99484.78;1087673;54;20046;-79
2021/10/05 03:40:31;;;;;;;6.65;4.15;;;;;;;13.39;81.63;99473.19;1087839;54;20781;-81
2021/10/05 03:41:37;;;;;;;6.13;3.60;;;;;;;13.37;81.76;99471.69;1087745;54;20035;-81
2021/10/05 03:42:44;;;;;;;5.03;4.07;;;;;;;13.37;81.38;99477.06;1087865;54;20034;-81
2021/10/05 03:43:49;;;;;;;6.50;4.60;;;;;;;13.35;81.45;99476.38;1087714;54;20815;-81
2021/10/05 03:44:50;;;;;;;4.80;3.78;;;;;;;13.33;81.51;99471.19;1089538;39;20556;-79
2021/10/05 03:45:56;;;;;;;4.70;3.55;;;;;;;13.36;81.43;99480.75;1088898;46;20721;-80
2021/10/05 03:47:01;;;;;;;4.95;3.60;;;;;;;13.35;81.83;99484.44;1087703;54;20042;-79
2021/10/05 03:48:03;;;;;;;8.45;4.47;;;;;;;13.33;81.61;99481.09;1087734;54;20098;-79
2021/10/05 03:49:07;;;;;;;5.95;3.67;;;;;;;13.32;81.81;99477.59;1087820;47;20099;-80
2021/10/05 03:50:10;;;;;;;5.68;3.63;;;;;;;13.38;81.88;99473.34;1089636;39;20523;-80
2021/10/05 03:51:14;;;;;;;5.00;2.97;;;;;;;13.38;81.61;99479.56;1087677;54;20038;-80
2021/10/05 03:52:16;;;;;;;4.90;3.40;;;;;;;13.43;81.58;99472.84;1087618;54;20090;-78
2021/10/05 03:53:22;;;;;;;5.10;3.20;;;;;;;13.47;81.31;99476.84;1090126;39;20694;-79
2021/10/05 03:54:23;;;;;;;4.35;2.90;;;;;;;13.48;81.28;99482.06;1087755;54;20042;-79
2021/10/05 03:55:28;;;;;;;4.65;2.88;;;;;;;13.51;81.06;99481.69;1087461;54;20030;-79
2021/10/05 03:56:32;;;;;;;5.85;3.40;;;;;;;13.52;81.22;99493.28;1087856;39;20899;-80
2021/10/05 03:57:38;;;;;;;4.60;3.15;;;;;;;13.52;81.31;99486.03;1088019;31;20886;-80
2021/10/05 03:58:42;;;;;;;4.78;3.13;;;;;;;13.51;81.11;99484.38;1087193;54;20026;-79
2021/10/05 03:59:44;;;;;;;4.50;3.10;;;;;;;13.52;81.24;99482.53;1087702;54;20034;-79
2021/10/05 04:00:49;;;;;;;4.68;3.22;;;;;;;13.53;81.29;99482.34;1087560;54;20027;-80
2021/10/05 04:01:51;;;;;;;5.57;3.15;;;;;;;13.52;81.30;99482.53;1087615;54;20061;-80
2021/10/05 04:02:56;;;;;;;4.60;2.42;;;;;;;13.56;81.33;99476.63;1087558;54;20053;-80
2021/10/05 04:03:58;;;;;;;3.88;2.80;;;;;;;13.56;81.14;99465.88;1087688;54;20038;-79
2021/10/05 04:05:02;;;;;;;5.05;3.28;;;;;;;13.57;81.14;99467.56;1087508;54;20034;-79
2021/10/05 04:06:04;;;;;;;4.78;3.17;;;;;;;13.55;81.08;99471.44;1087367;54;20034;-79
2021/10/05 04:07:08;;;;;;;5.38;3.20;;;;;;;13.56;80.74;99473.94;1087607;54;20034;-79
2021/10/05 04:08:10;;;;;;;6.03;3.70;;;;;;;13.53;80.92;99470.78;1087545;54;20042;-79
2021/10/05 04:09:14;;;;;;;5.93;3.83;;;;;;;13.51;80.84;99476.31;1090066;39;20917;-80
2021/10/05 04:10:15;;;;;;;6.75;4.78;;;;;;;13.46;80.83;99470.66;1087455;54;20054;-79
2021/10/05 04:11:19;;;;;;;4.90;3.70;;;;;;;13.45;81.26;99463.59;1087816;47;20753;-80
2021/10/05 04:12:21;;;;;;;5.93;4.18;;;;;;;13.39;81.17;99475.06;1087532;54;20131;-79
2021/10/05 04:13:28;;;;;;;9.93;4.68;;;;;;;13.37;81.01;99472.50;1087270;54;20081;-80
2021/10/05 04:14:29;;;;;;;7.35;4.53;;;;;;;13.35;81.28;99471.88;1087348;54;20034;-80
2021/10/05 04:15:34;;;;;;;5.75;4.38;;;;;;;13.33;81.33;99473.03;1087616;54;20038;-79
2021/10/05 04:16:35;;;;;;;6.13;4.57;;;;;;;13.34;81.19;99477.41;1087511;54;20027;-80
2021/10/05 04:17:39;;;;;;;6.47;4.60;;;;;;;13.33;81.50;99468.53;1087687;54;20034;-79
2021/10/05 04:18:43;;;;;;;9.82;4.75;;;;;;;13.32;81.35;99476.75;1087646;54;20053;-80
2021/10/05 04:19:45;;;;;;;5.43;3.88;;;;;;;13.31;81.57;99469.72;1087678;54;20053;-79
2021/10/05 04:20:49;;;;;;;5.65;3.95;;;;;;;13.33;81.32;99467.66;1087596;54;20038;-80
2021/10/05 04:21:51;;;;;;;6.53;3.72;;;;;;;13.31;81.26;99469.72;1087657;54;20057;-79
2021/10/05 04:22:55;;;;;;;5.70;3.80;;;;;;;13.32;81.55;99471.41;1088062;39;20630;-80
2021/10/05 04:23:57;;;;;;;7.35;4.00;;;;;;;13.33;81.41;99481.09;1089543;39;20717;-79
2021/10/05 04:25:01;;;;;;;5.13;3.67;;;;;;;13.32;81.55;99476.75;1087528;54;20705;-79
2021/10/05 04:26:06;;;;;;;6.07;4.40;;;;;;;13.26;81.42;99473.75;1087524;54;20031;-80
2021/10/05 04:27:10;;;;;;;4.75;3.28;;;;;;;13.28;81.71;99473.56;1087432;54;20034;-80
2021/10/05 04:28:14;;;;;;;5.18;3.60;;;;;;;13.31;81.27;99477.78;1093967;39;20783;-80
2021/10/05 04:29:18;;;;;;;5.38;3.70;;;;;;;13.27;81.49;99479.97;1087963;54;20037;-80
2021/10/05 04:30:23;;;;;;;6.50;3.88;;;;;;;13.29;81.70;99485.16;1087889;54;20030;-80
2021/10/05 04:31:25;;;;;;;5.13;3.53;;;;;;;13.33;81.60;99481.09;1087876;54;20061;-79
2021/10/05 04:32:30;;;;;;;5.43;3.33;;;;;;;13.30;81.25;99476.09;1088040;54;20059;-79
2021/10/05 04:33:35;;;;;;;5.30;3.70;;;;;;;13.29;81.57;99482.47;1087816;54;20030;-80
2021/10/05 04:34:37;;;;;;;5.55;3.92;;;;;;;13.29;81.44;99474.41;1088011;54;20035;-79
2021/10/05 04:35:41;;;;;;;6.35;4.88;;;;;;;13.28;81.41;99478.94;1087974;54;20054;-80
2021/10/05 04:36:42;;;;;;;8.18;5.30;;;;;;;13.26;81.36;99473.75;1095444;39;20629;-79
2021/10/05 04:37:47;;;;;;;8.35;6.20;;;;;;;13.24;81.70;99469.56;1087982;54;20030;-80
2021/10/05 04:38:48;;;;;;;10.43;7.88;;;;;;;13.23;81.77;99468.72;1088785;39;20696;-80
2021/10/05 04:39:52;;;;;;;9.10;6.28;;;;;;;13.22;81.77;99464.41;1087975;54;20054;-80
2021/10/05 04:40:54;;;;;;;8.30;6.47;;;;;;;13.24;81.52;99465.03;1088035;54;20030;-80
2021/10/05 04:41:58;;;;;;;7.75;5.97;;;;;;;13.24;81.58;99467.72;1088080;54;20018;-79
2021/10/05 04:43:02;;;;;;;8.68;6.22;;;;;;;13.26;81.71;99467.56;1088404;39;20562;-80
2021/10/05 04:44:04;;;;;;;8.90;5.68;;;;;;;13.29;81.76;99471.72;1087966;54;20038;-79
2021/10/05 04:45:11;;;;;;;7.40;5.32;;;;;;;13.32;81.61;99471.41;1088023;54;20029;-80
2021/10/05 04:46:13;;;;;;;6.78;4.80;;;;;;;13.33;81.52;99464.97;1088924;39;20741;-81
2021/10/05 04:47:17;;;;;;;7.00;5.25;;;;;;;13.32;81.80;99468.72;1087959;54;20031;-79
2021/10/05 04:48:19;;;;;;;7.60;5.38;;;;;;;13.34;81.85;99472.03;1087777;54;20038;-79
2021/10/05 04:49:24;;;;;;;7.07;5.28;;;;;;;13.36;81.57;99472.69;1087906;54;20169;-80
2021/10/05 04:50:25;;;;;;;7.03;5.25;;;;;;;13.28;81.61;99473.56;1090230;46;20036;-80
2021/10/05 04:51:29;;;;;;;7.57;5.32;;;;;;;13.13;82.23;99476.16;1087938;54;20030;-79
2021/10/05 04:52:31;;;;;;;8.13;5.55;;;;;;;13.11;82.60;99470.97;1087946;54;20050;-80
2021/10/05 04:53:35;;;;;;;7.32;5.35;;;;;;;13.15;82.23;99473.31;1087891;54;20037;-80
2021/10/05 04:54:37;;;;;;;6.97;5.55;;;;;;;13.18;82.13;99470.25;1088030;54;20038;-80
2021/10/05 04:55:43;;;;;;;5.93;4.50;;;;;;;13.23;82.16;99463.34;1088088;46;20123;-79
2021/10/05 04:56:48;;;;;;;6.28;4.32;;;;;;;13.30;81.94;99460.81;1088369;39;20671;-79
2021/10/05 04:57:53;;;;;;;6.00;4.28;;;;;;;13.34;81.93;99466.66;1089907;39;20935;-80
2021/10/05 04:58:54;;;;;;;5.65;4.35;;;;;;;13.38;81.37;99457.25;1087754;54;20042;-79
2021/10/05 04:59:58;;;;;;;6.70;4.88;;;;;;;13.38;81.39;99463.44;1088002;54;20031;-79
2021/10/05 05:01:02;;;;;;;6.55;4.85;;;;;;;13.37;81.47;99461.75;1087916;54;20042;-79
2021/10/05 05:02:06;;;;;;;5.60;4.18;;;;;;;13.38;81.37;99457.25;1089492;46;20754;-79